createdAt,value
2023-02-03T00:00:00.037Z,3.10
2023-02-03T00:02:02.237Z,2.80
2023-02-03T00:04:04.529Z,3.03
2023-02-03T00:06:06.854Z,2.93
2023-02-03T00:08:09.561Z,3.07
2023-02-03T00:10:11.742Z,2.90
2023-02-03T00:12:14.406Z,3.20
2023-02-03T00:14:17.337Z,3.10
2023-02-03T00:16:19.477Z,2.40
2023-02-03T00:18:21.608Z,2.90
2023-02-03T00:20:23.895Z,2.90
2023-02-03T00:22:26.078Z,2.57
2023-02-03T00:24:28.246Z,2.93
2023-02-03T00:26:30.425Z,2.20
2023-02-03T00:28:32.519Z,3.13
2023-02-03T00:30:35.929Z,2.80
2023-02-03T00:32:38.572Z,3.07
2023-02-03T00:34:40.899Z,3.17
2023-02-03T00:36:43.197Z,3.40
2023-02-03T00:38:45.421Z,3.13
2023-02-03T00:40:54.260Z,4.20
2023-02-03T00:42:56.415Z,4.27
2023-02-03T00:44:58.519Z,3.73
2023-02-03T00:47:00.796Z,3.10
2023-02-03T00:49:04.795Z,3.50
2023-02-03T00:51:07.240Z,3.20
2023-02-03T00:53:09.530Z,3.20
2023-02-03T00:55:11.774Z,3.30
2023-02-03T00:57:13.857Z,3.20
2023-02-03T00:59:16.054Z,3.73
2023-02-03T01:01:18.293Z,3.63
2023-02-03T01:03:20.464Z,3.10
2023-02-03T01:05:23.450Z,3.40
2023-02-03T01:07:25.536Z,3.40
2023-02-03T01:09:27.809Z,3.20
2023-02-03T01:11:30.011Z,2.93
2023-02-03T01:13:32.154Z,3.57
2023-02-03T01:15:34.417Z,3.70
2023-02-03T01:17:36.561Z,3.90
2023-02-03T01:19:38.690Z,4.17
2023-02-03T01:21:40.834Z,2.93
2023-02-03T01:23:43.407Z,3.70
2023-02-03T01:25:49.379Z,4.40
2023-02-03T01:27:51.506Z,3.97
2023-02-03T01:29:53.678Z,4.00
2023-02-03T01:31:55.920Z,4.37
2023-02-03T01:33:58.807Z,4.50
2023-02-03T01:36:01.441Z,4.30
2023-02-03T01:38:05.109Z,4.37
2023-02-03T01:40:08.105Z,4.50
2023-02-03T01:42:14.416Z,4.90
2023-02-03T01:44:40.079Z,4.77
2023-02-03T01:46:48.896Z,4.70
2023-02-03T01:48:52.243Z,5.00
2023-02-03T01:50:54.926Z,5.50
2023-02-03T01:53:01.536Z,4.93
2023-02-03T01:55:06.174Z,4.33
2023-02-03T01:57:25.015Z,4.43
2023-02-03T01:59:27.673Z,5.13
2023-02-03T02:01:32.139Z,4.80
2023-02-03T02:03:49.085Z,5.20
2023-02-03T02:05:56.594Z,5.30
2023-02-03T02:08:00.334Z,5.77
2023-02-03T02:10:04.369Z,5.60
2023-02-03T02:12:06.610Z,5.13
2023-02-03T02:14:10.738Z,5.70
2023-02-03T02:16:19.771Z,5.00
2023-02-03T02:18:44.942Z,5.77
2023-02-03T02:21:15.522Z,5.60
2023-02-03T02:23:36.653Z,5.00
2023-02-03T02:26:28.970Z,5.40
2023-02-03T02:29:05.157Z,5.40
2023-02-03T02:31:29.107Z,5.53
2023-02-03T02:33:49.546Z,5.10
2023-02-03T02:36:10.221Z,5.30
2023-02-03T02:38:30.616Z,5.57
2023-02-03T02:40:41.689Z,5.00
2023-02-03T02:42:53.660Z,5.67
2023-02-03T02:45:10.925Z,6.00
2023-02-03T02:47:20.914Z,5.73
2023-02-03T02:49:42.660Z,5.60
2023-02-03T02:51:48.544Z,5.90
2023-02-03T02:53:56.131Z,5.77
2023-02-03T02:55:59.517Z,6.40
2023-02-03T02:58:06.283Z,6.23
2023-02-03T03:00:09.309Z,6.73
2023-02-03T03:02:12.093Z,7.27
2023-02-03T03:04:16.726Z,7.07
2023-02-03T03:06:23.313Z,7.17
2023-02-03T03:08:41.336Z,8.20
2023-02-03T03:10:46.835Z,7.90
2023-02-03T03:12:53.741Z,7.73
2023-02-03T03:15:01.296Z,9.23
2023-02-03T03:17:06.723Z,8.77
2023-02-03T03:19:11.617Z,10.93
2023-02-03T03:21:18.210Z,9.70
2023-02-03T03:23:27.226Z,11.37
2023-02-03T03:25:34.812Z,10.97
2023-02-03T03:27:40.258Z,10.07
2023-02-03T03:29:49.884Z,11.00
2023-02-03T03:31:52.021Z,11.20
2023-02-03T03:33:55.081Z,10.50
2023-02-03T03:36:05.095Z,10.70
2023-02-03T03:38:17.474Z,12.30
2023-02-03T03:40:41.886Z,11.13
2023-02-03T03:42:47.190Z,11.30
2023-02-03T03:44:58.194Z,11.33
2023-02-03T03:47:44.040Z,11.53
2023-02-03T03:49:47.140Z,11.70
2023-02-03T03:51:53.280Z,12.70
2023-02-03T03:53:57.078Z,13.03
2023-02-03T03:56:00.950Z,12.30
2023-02-03T03:58:08.747Z,13.20
2023-02-03T04:00:13.616Z,14.23
2023-02-03T04:02:18.252Z,13.50
2023-02-03T04:04:21.471Z,13.10
2023-02-03T04:06:23.874Z,12.77
2023-02-03T04:08:26.052Z,12.97
2023-02-03T04:10:32.030Z,13.30
2023-02-03T04:12:34.174Z,13.83
2023-02-03T04:14:40.875Z,12.60
2023-02-03T04:16:43.018Z,13.93
2023-02-03T04:18:45.326Z,13.10
2023-02-03T04:20:47.507Z,14.97
2023-02-03T04:22:49.985Z,14.50
2023-02-03T04:24:52.062Z,16.47
2023-02-03T04:26:54.215Z,15.77
2023-02-03T04:28:56.319Z,17.80
2023-02-03T04:31:01.228Z,15.60
2023-02-03T04:33:03.482Z,15.97
2023-02-03T04:35:07.139Z,15.50
2023-02-03T04:37:09.339Z,17.50
2023-02-03T04:39:11.621Z,15.80
2023-02-03T04:41:13.765Z,15.13
2023-02-03T04:43:17.105Z,16.10
2023-02-03T04:45:19.233Z,14.70
2023-02-03T04:47:21.369Z,15.60
2023-02-03T04:49:23.453Z,15.67
2023-02-03T04:51:25.572Z,15.53
2023-02-03T04:53:27.691Z,15.33
2023-02-03T04:55:29.973Z,14.10
2023-02-03T04:57:32.077Z,14.03
2023-02-03T04:59:34.280Z,14.73
2023-02-03T05:01:36.369Z,15.77
2023-02-03T05:03:38.599Z,13.53
2023-02-03T05:05:40.788Z,14.73
2023-02-03T05:07:43.117Z,13.63
2023-02-03T05:09:45.219Z,12.40
2023-02-03T05:11:47.381Z,13.27
2023-02-03T05:13:49.553Z,12.57
2023-02-03T05:15:51.792Z,11.57
2023-02-03T05:17:55.156Z,10.90
2023-02-03T05:19:57.301Z,10.80
2023-02-03T05:21:59.440Z,11.47
2023-02-03T05:24:03.290Z,11.30
2023-02-03T05:26:05.605Z,11.10
2023-02-03T05:28:13.374Z,11.50
2023-02-03T05:30:15.530Z,10.83
2023-02-03T05:32:17.631Z,11.23
2023-02-03T05:34:19.927Z,11.10
2023-02-03T05:36:25.183Z,10.80
2023-02-03T05:38:27.408Z,10.90
2023-02-03T05:40:48.572Z,11.10
2023-02-03T05:42:50.741Z,10.07
2023-02-03T05:44:52.856Z,11.07
2023-02-03T05:46:58.127Z,9.80
2023-02-03T05:49:00.266Z,10.33
2023-02-03T05:51:02.505Z,11.93
2023-02-03T05:53:05.831Z,10.57
2023-02-03T05:55:08.049Z,10.50
2023-02-03T05:57:10.345Z,11.90
2023-02-03T05:59:12.459Z,11.93
2023-02-03T06:01:14.696Z,10.87
2023-02-03T06:03:16.877Z,11.60
2023-02-03T06:05:19.579Z,10.97
2023-02-03T06:07:21.662Z,11.47
2023-02-03T06:09:24.185Z,11.70
2023-02-03T06:11:26.353Z,11.00
2023-02-03T06:13:28.847Z,10.90
2023-02-03T06:15:31.054Z,11.57
2023-02-03T06:17:33.177Z,10.70
2023-02-03T06:19:35.381Z,11.20
2023-02-03T06:21:37.481Z,11.80
2023-02-03T06:23:39.643Z,10.23
2023-02-03T06:25:41.817Z,11.37
2023-02-03T06:27:44.015Z,10.60
2023-02-03T06:29:46.157Z,11.03
2023-02-03T06:31:48.591Z,11.23
2023-02-03T06:33:50.966Z,10.20
2023-02-03T06:35:54.492Z,12.10
2023-02-03T06:37:56.688Z,10.00
2023-02-03T06:39:58.809Z,10.30
2023-02-03T06:42:00.985Z,11.03
2023-02-03T06:44:03.170Z,8.83
2023-02-03T06:46:05.418Z,9.80
2023-02-03T06:48:07.850Z,9.73
2023-02-03T06:50:11.912Z,9.63
2023-02-03T06:52:15.565Z,9.10
2023-02-03T06:54:18.105Z,7.40
2023-02-03T06:56:20.215Z,8.27
2023-02-03T06:58:22.353Z,7.70
2023-02-03T07:00:24.772Z,8.10
2023-02-03T07:02:26.970Z,8.10
2023-02-03T07:04:30.252Z,8.30
2023-02-03T07:06:34.110Z,7.77
2023-02-03T07:08:36.291Z,8.10
2023-02-03T07:10:38.474Z,8.00
2023-02-03T07:12:40.654Z,8.73
2023-02-03T07:14:42.760Z,8.37
2023-02-03T07:16:44.934Z,8.50
2023-02-03T07:18:48.180Z,8.70
2023-02-03T07:20:51.415Z,7.90
2023-02-03T07:22:58.012Z,8.30
2023-02-03T07:25:00.086Z,8.30
2023-02-03T07:27:04.513Z,9.00
2023-02-03T07:29:06.832Z,8.70
2023-02-03T07:31:10.509Z,7.67
2023-02-03T07:33:12.635Z,7.57
2023-02-03T07:35:14.774Z,8.47
2023-02-03T07:37:16.727Z,8.00
2023-02-03T07:39:18.784Z,8.10
2023-02-03T07:41:21.174Z,7.30
2023-02-03T07:43:23.548Z,7.70
2023-02-03T07:45:25.889Z,7.20
2023-02-03T07:47:27.939Z,8.53
2023-02-03T07:49:30.055Z,7.87
2023-02-03T07:51:32.067Z,8.17
2023-02-03T07:53:34.084Z,6.57
2023-02-03T07:55:38.245Z,8.00
2023-02-03T07:57:43.543Z,7.43
2023-02-03T07:59:45.827Z,7.07
2023-02-03T08:01:47.963Z,7.40
2023-02-03T08:03:49.943Z,6.60
2023-02-03T08:05:53.443Z,6.00
2023-02-03T08:07:55.397Z,6.60
2023-02-03T08:09:57.344Z,6.43
2023-02-03T08:11:59.341Z,5.57
2023-02-03T08:14:01.308Z,5.83
2023-02-03T08:16:03.465Z,5.70
2023-02-03T08:18:05.513Z,6.27
2023-02-03T08:20:08.807Z,5.33
2023-02-03T08:22:16.026Z,5.17
2023-02-03T08:24:18.123Z,5.43
2023-02-03T08:26:20.245Z,4.47
2023-02-03T08:28:22.314Z,4.30
2023-02-03T08:30:24.574Z,4.27
2023-02-03T08:32:27.340Z,5.03
2023-02-03T08:34:29.613Z,5.30
2023-02-03T08:36:31.602Z,4.77
2023-02-03T08:38:33.592Z,4.50
2023-02-03T08:40:35.588Z,4.67
2023-02-03T08:42:37.707Z,5.60
2023-02-03T08:44:39.813Z,5.10
2023-02-03T08:46:44.193Z,4.73
2023-02-03T08:48:46.142Z,5.57
2023-02-03T08:50:52.869Z,5.50
2023-02-03T08:52:55.029Z,4.70
2023-02-03T08:54:57.213Z,6.20
2023-02-03T08:56:59.755Z,5.20
2023-02-03T08:59:01.736Z,4.80
2023-02-03T09:01:08.666Z,4.43
2023-02-03T09:03:10.735Z,5.37
2023-02-03T09:05:12.860Z,5.07
2023-02-03T09:07:15.536Z,4.50
2023-02-03T09:09:17.736Z,4.63
2023-02-03T09:11:19.749Z,3.20
2023-02-03T09:13:21.860Z,3.00
2023-02-03T09:15:23.852Z,3.50
2023-02-03T09:17:25.971Z,3.43
2023-02-03T09:19:28.155Z,2.90
2023-02-03T09:21:44.251Z,3.20
2023-02-03T09:23:49.044Z,3.03
2023-02-03T09:25:50.991Z,3.10
2023-02-03T09:27:52.944Z,3.10
2023-02-03T09:29:54.920Z,3.53
2023-02-03T09:31:57.130Z,3.20
2023-02-03T09:34:00.215Z,2.93
2023-02-03T09:36:02.928Z,2.17
2023-02-03T09:38:05.018Z,2.80
2023-02-03T09:40:07.476Z,2.67
2023-02-03T09:42:19.375Z,2.20
2023-02-03T09:45:09.047Z,2.63
2023-02-03T09:47:15.079Z,2.20
2023-02-03T09:49:27.651Z,2.20
2023-02-03T09:51:33.959Z,2.37
2023-02-03T09:53:45.270Z,2.10
2023-02-03T09:55:47.744Z,2.20
2023-02-03T09:57:58.647Z,2.33
2023-02-03T10:00:04.388Z,1.60
2023-02-03T10:02:09.966Z,1.93
2023-02-03T10:04:53.423Z,2.20
2023-02-03T10:07:05.674Z,1.80
2023-02-03T10:09:24.419Z,1.97
2023-02-03T10:11:46.056Z,2.10
2023-02-03T10:14:16.179Z,2.10
2023-02-03T10:16:28.798Z,2.00
2023-02-03T10:18:37.500Z,1.70
2023-02-03T10:20:42.013Z,1.97
2023-02-03T10:22:51.372Z,1.80
2023-02-03T10:24:58.051Z,1.80
2023-02-03T10:27:00.138Z,1.73
2023-02-03T10:29:07.102Z,1.70
2023-02-03T10:31:34.776Z,1.77
2023-02-03T10:33:36.869Z,2.07
2023-02-03T10:35:47.975Z,2.10
2023-02-03T10:37:51.817Z,2.10
2023-02-03T10:39:54.589Z,1.90
2023-02-03T10:41:56.935Z,2.33
2023-02-03T10:44:02.606Z,1.90
2023-02-03T10:46:04.815Z,2.10
2023-02-03T10:48:13.471Z,2.00
2023-02-03T10:50:18.841Z,2.30
2023-02-03T10:52:35.239Z,2.30
2023-02-03T10:54:38.302Z,2.17
2023-02-03T10:56:40.982Z,2.30
2023-02-03T10:58:49.679Z,2.23
2023-02-03T11:01:05.573Z,2.40
2023-02-03T11:03:29.032Z,2.17
2023-02-03T11:05:31.063Z,2.20
2023-02-03T11:07:33.051Z,2.67
2023-02-03T11:09:43.009Z,2.90
2023-02-03T11:11:45.043Z,3.07
2023-02-03T11:13:48.856Z,2.77
2023-02-03T11:16:17.666Z,2.97
2023-02-03T11:18:31.810Z,2.33
2023-02-03T11:20:36.512Z,2.80
2023-02-03T11:22:39.353Z,2.40
2023-02-03T11:24:42.318Z,2.43
2023-02-03T11:26:51.548Z,2.83
2023-02-03T11:28:56.208Z,2.37
2023-02-03T11:30:59.046Z,2.00
2023-02-03T11:33:02.189Z,2.60
2023-02-03T11:35:05.230Z,2.20
2023-02-03T11:37:28.102Z,2.60
2023-02-03T11:39:35.647Z,2.87
2023-02-03T11:41:39.913Z,3.13
2023-02-03T11:43:42.012Z,2.67
2023-02-03T11:45:52.168Z,2.73
2023-02-03T11:48:21.454Z,2.97
2023-02-03T11:50:32.296Z,3.00
2023-02-03T11:52:50.599Z,2.60
2023-02-03T11:55:04.221Z,2.57
2023-02-03T11:57:17.721Z,2.60
2023-02-03T11:59:29.055Z,2.73
2023-02-03T12:01:46.038Z,2.50
2023-02-03T12:03:54.249Z,2.57
2023-02-03T12:06:08.285Z,2.43
2023-02-03T12:08:15.270Z,2.87
2023-02-03T12:10:32.755Z,2.27
2023-02-03T12:13:07.116Z,2.70
2023-02-03T12:15:19.345Z,2.57
2023-02-03T12:17:27.215Z,2.10
2023-02-03T12:19:39.162Z,2.40
2023-02-03T12:21:47.288Z,2.70
2023-02-03T12:23:59.911Z,2.80
2023-02-03T12:26:16.018Z,2.40
2023-02-03T12:28:32.914Z,2.60
2023-02-03T12:30:41.548Z,2.90
2023-02-03T12:32:56.965Z,3.47
2023-02-03T12:35:27.246Z,3.00
2023-02-03T12:37:44.967Z,3.53
2023-02-03T12:39:52.045Z,3.40
2023-02-03T12:42:02.034Z,4.13
2023-02-03T12:44:20.921Z,3.07
2023-02-03T12:46:27.450Z,3.47
2023-02-03T12:48:45.603Z,4.00
2023-02-03T12:50:52.363Z,3.30
2023-02-03T12:52:58.569Z,4.40
2023-02-03T12:55:14.118Z,3.80
2023-02-03T12:57:17.617Z,3.63
2023-02-03T12:59:23.086Z,3.37
2023-02-03T13:01:43.773Z,2.73
2023-02-03T13:03:50.636Z,4.17
2023-02-03T13:06:15.289Z,3.70
2023-02-03T13:08:34.724Z,4.30
2023-02-03T13:11:15.737Z,4.70
2023-02-03T13:13:23.859Z,3.60
2023-02-03T13:15:30.764Z,3.80
2023-02-03T13:17:55.712Z,3.90
2023-02-03T13:20:04.296Z,4.03
2023-02-03T13:22:11.887Z,3.17
2023-02-03T13:24:13.967Z,4.67
2023-02-03T13:26:21.658Z,4.87
2023-02-03T13:28:38.281Z,4.20
2023-02-03T13:31:05.156Z,5.27
2023-02-03T13:33:25.636Z,4.37
2023-02-03T13:35:52.537Z,3.17
2023-02-03T13:38:09.591Z,4.30
2023-02-03T13:40:25.053Z,4.50
2023-02-03T13:42:32.955Z,4.43
2023-02-03T13:44:37.072Z,5.60
2023-02-03T13:46:39.649Z,4.03
2023-02-03T13:48:44.602Z,4.10
2023-02-03T13:50:48.195Z,3.80
2023-02-03T13:53:07.203Z,4.30
2023-02-03T13:55:35.895Z,3.30
2023-02-03T13:57:38.904Z,4.17
2023-02-03T13:59:43.635Z,3.23
2023-02-03T14:01:46.171Z,3.60
2023-02-03T14:03:48.631Z,4.57
2023-02-03T14:06:01.295Z,4.40
2023-02-03T14:08:26.279Z,5.00
2023-02-03T14:10:29.349Z,3.60
2023-02-03T14:12:35.785Z,4.33
2023-02-03T14:14:37.771Z,3.53
2023-02-03T14:16:41.123Z,4.30
2023-02-03T14:18:46.626Z,4.63
2023-02-03T14:20:51.246Z,4.63
2023-02-03T14:23:00.802Z,4.30
2023-02-03T14:25:06.296Z,5.33
2023-02-03T14:27:20.475Z,4.67
2023-02-03T14:29:27.777Z,5.27
2023-02-03T14:31:30.064Z,4.10
2023-02-03T14:33:54.005Z,4.23
2023-02-03T14:35:56.080Z,4.27
2023-02-03T14:38:01.333Z,5.13
2023-02-03T14:40:10.541Z,3.10
2023-02-03T14:42:31.760Z,3.70
2023-02-03T14:44:52.873Z,4.30
2023-02-03T14:47:04.096Z,4.47
2023-02-03T14:49:10.515Z,4.53
2023-02-03T14:51:22.416Z,4.00
2023-02-03T14:53:36.196Z,5.40
2023-02-03T14:56:02.954Z,3.87
2023-02-03T14:58:14.046Z,5.53
2023-02-03T15:00:25.332Z,4.57
2023-02-03T15:02:31.110Z,4.27
2023-02-03T15:04:33.192Z,3.33
2023-02-03T15:06:49.569Z,4.70
2023-02-03T15:08:53.088Z,4.40
2023-02-03T15:10:55.072Z,4.47
2023-02-03T15:12:58.402Z,4.30
2023-02-03T15:15:21.994Z,5.23
2023-02-03T15:17:27.278Z,3.93
2023-02-03T15:19:33.845Z,4.83
2023-02-03T15:21:41.748Z,4.07
2023-02-03T15:23:48.086Z,4.00
2023-02-03T15:26:02.378Z,3.80
2023-02-03T15:28:30.833Z,3.57
2023-02-03T15:30:32.949Z,3.90
2023-02-03T15:32:38.705Z,3.60
2023-02-03T15:34:46.347Z,3.77
2023-02-03T15:36:50.971Z,2.90
2023-02-03T15:38:58.559Z,3.30
2023-02-03T15:41:00.629Z,3.43
2023-02-03T15:43:19.562Z,3.97
2023-02-03T15:45:37.513Z,4.70
2023-02-03T15:47:42.051Z,4.30
2023-02-03T15:49:44.293Z,4.30
2023-02-03T15:51:50.177Z,3.80
2023-02-03T15:53:56.589Z,3.40
2023-02-03T15:56:04.356Z,3.27
2023-02-03T15:58:06.560Z,3.50
2023-02-03T16:00:12.739Z,3.60
2023-02-03T16:02:26.007Z,3.60
2023-02-03T16:04:28.248Z,3.10
2023-02-03T16:06:30.692Z,3.90
2023-02-03T16:08:43.313Z,3.83
2023-02-03T16:10:45.449Z,3.93
2023-02-03T16:12:47.547Z,4.10
2023-02-03T16:14:50.330Z,3.60
2023-02-03T16:17:04.254Z,3.17
2023-02-03T16:19:14.420Z,3.10
2023-02-03T16:21:49.678Z,4.03
2023-02-03T16:23:51.645Z,3.90
2023-02-03T16:26:16.752Z,4.23
2023-02-03T16:28:37.256Z,3.40
2023-02-03T16:30:57.996Z,5.83
2023-02-03T16:33:27.994Z,3.50
2023-02-03T16:35:48.865Z,4.37
2023-02-03T16:38:09.883Z,4.33
2023-02-03T16:40:32.482Z,4.43
2023-02-03T16:42:58.453Z,3.37
2023-02-03T16:45:19.220Z,3.57
2023-02-03T16:47:47.414Z,2.97
2023-02-03T16:50:07.766Z,4.10
2023-02-03T16:52:09.862Z,3.87
2023-02-03T16:54:13.849Z,4.30
2023-02-03T16:56:18.568Z,5.10
2023-02-03T16:58:21.628Z,3.80
2023-02-03T17:00:24.065Z,3.77
2023-02-03T17:02:26.192Z,4.90
2023-02-03T17:04:28.556Z,3.90
2023-02-03T17:06:30.665Z,3.80
2023-02-03T17:08:34.552Z,4.17
2023-02-03T17:10:38.497Z,4.03
2023-02-03T17:12:40.624Z,4.13
2023-02-03T17:14:42.736Z,3.07
2023-02-03T17:16:44.833Z,3.93
2023-02-03T17:18:47.142Z,4.50
2023-02-03T17:20:49.238Z,5.03
2023-02-03T17:22:54.763Z,4.00
2023-02-03T17:24:56.882Z,4.47
2023-02-03T17:26:59.219Z,5.37
2023-02-03T17:29:03.503Z,3.70
2023-02-03T17:31:07.180Z,3.37
2023-02-03T17:33:12.299Z,4.27
2023-02-03T17:35:14.409Z,4.40
2023-02-03T17:37:16.469Z,4.37
2023-02-03T17:53:36.777Z,4.80
2023-02-03T17:55:39.017Z,4.07
2023-02-03T17:57:41.121Z,3.60
2023-02-03T17:59:43.281Z,4.57
2023-02-03T18:01:46.823Z,4.60
2023-02-03T18:03:50.648Z,4.17
2023-02-03T18:05:52.921Z,4.03
2023-02-03T18:07:55.567Z,4.17
2023-02-03T18:09:57.586Z,4.07
2023-02-03T18:11:59.704Z,5.33
2023-02-03T18:14:01.977Z,4.80
2023-02-03T18:16:05.724Z,5.57
2023-02-03T18:18:08.644Z,4.50
2023-02-03T18:20:11.999Z,4.17
2023-02-03T18:22:14.577Z,3.73
2023-02-03T18:24:18.517Z,4.13
2023-02-03T18:26:20.834Z,6.17
2023-02-03T18:28:23.374Z,5.00
2023-02-03T18:30:25.595Z,3.80
2023-02-03T18:32:27.582Z,4.50
2023-02-03T18:34:29.673Z,4.47
2023-02-03T18:36:32.517Z,4.60
2023-02-03T18:38:36.100Z,4.20
2023-02-03T18:40:38.302Z,4.47
2023-02-03T18:42:40.344Z,3.83
2023-02-03T18:44:44.151Z,4.70
2023-02-03T18:46:46.128Z,4.30
2023-02-03T18:48:48.314Z,3.60
2023-02-03T18:50:50.474Z,4.50
2023-02-03T18:52:54.064Z,5.07
2023-02-03T18:54:56.144Z,4.27
2023-02-03T18:57:03.025Z,4.63
2023-02-03T18:59:07.259Z,4.77
2023-02-03T19:01:09.677Z,3.70
2023-02-03T19:03:11.879Z,3.70
2023-02-03T19:05:14.138Z,3.67
2023-02-03T19:07:16.289Z,3.50
2023-02-03T19:09:19.415Z,4.20
2023-02-03T19:11:22.383Z,4.30
2023-02-03T19:13:24.605Z,3.40
2023-02-03T19:15:26.874Z,4.03
2023-02-03T19:17:29.557Z,4.37
2023-02-03T19:19:33.073Z,3.50
2023-02-03T19:21:35.942Z,4.03
2023-02-03T19:23:39.285Z,3.07
2023-02-03T19:25:41.408Z,3.50
2023-02-03T19:27:44.305Z,3.73
2023-02-03T19:29:46.531Z,3.10
2023-02-03T19:31:48.857Z,3.80
2023-02-03T19:33:51.181Z,3.87
2023-02-03T19:35:53.343Z,4.50
2023-02-03T19:37:55.551Z,3.50
2023-02-03T19:39:57.724Z,4.23
2023-02-03T19:41:59.994Z,3.97
2023-02-03T19:44:05.767Z,3.27
2023-02-03T19:46:08.676Z,3.53
2023-02-03T19:48:10.924Z,3.67
2023-02-03T19:50:13.249Z,3.33
2023-02-03T19:52:15.693Z,4.20
2023-02-03T19:54:18.081Z,5.60
2023-02-03T19:56:20.601Z,3.73
2023-02-03T19:58:24.133Z,3.53
2023-02-03T20:00:28.918Z,4.00
2023-02-03T20:02:31.232Z,4.30
2023-02-03T20:04:35.476Z,4.10
2023-02-03T20:06:37.689Z,3.60
2023-02-03T20:08:39.891Z,3.70
2023-02-03T20:10:44.673Z,3.97
2023-02-03T20:12:46.958Z,4.27
2023-02-03T20:14:49.289Z,4.27
2023-02-03T20:16:51.545Z,4.93
2023-02-03T20:18:53.821Z,3.73
2023-02-03T20:20:57.080Z,2.90
2023-02-03T20:22:59.445Z,3.67
2023-02-03T20:25:01.722Z,3.63
2023-02-03T20:27:04.102Z,3.73
2023-02-03T20:29:06.793Z,4.07
2023-02-03T20:31:09.264Z,4.30
2023-02-03T20:33:12.466Z,4.73
2023-02-03T20:35:14.658Z,5.93
2023-02-03T20:37:16.841Z,4.10
2023-02-03T20:39:20.575Z,4.60
2023-02-03T20:41:22.834Z,3.87
2023-02-03T20:43:27.378Z,4.20
2023-02-03T20:45:30.003Z,4.73
2023-02-03T20:47:32.714Z,3.87
2023-02-03T20:49:34.985Z,4.10
2023-02-03T20:51:37.288Z,4.33
2023-02-03T20:53:40.082Z,3.90
2023-02-03T20:55:42.906Z,4.70
2023-02-03T20:57:47.112Z,4.60
2023-02-03T20:59:49.403Z,3.97
2023-02-03T21:01:52.034Z,4.17
2023-02-03T21:04:12.724Z,3.97
2023-02-03T21:06:17.205Z,4.30
2023-02-03T21:08:20.493Z,4.27
2023-02-03T21:10:24.627Z,4.20
2023-02-03T21:12:29.411Z,5.23
2023-02-03T21:14:38.533Z,5.67
2023-02-03T21:16:41.028Z,5.03
2023-02-03T21:18:50.455Z,5.03
2023-02-03T21:20:52.760Z,5.00
2023-02-03T21:22:56.032Z,4.60
2023-02-03T21:25:00.091Z,4.17
2023-02-03T21:27:02.529Z,4.53
2023-02-03T21:29:04.664Z,3.50
2023-02-03T21:31:19.584Z,3.57
2023-02-03T21:33:41.902Z,3.90
2023-02-03T21:35:44.162Z,4.43
2023-02-03T21:37:46.384Z,4.20
2023-02-03T21:39:49.344Z,3.30
2023-02-03T21:41:52.272Z,4.93
2023-02-03T21:43:57.143Z,4.07
2023-02-03T21:45:59.372Z,3.43
2023-02-03T21:48:17.964Z,3.57
2023-02-03T21:50:34.697Z,3.03
2023-02-03T21:52:37.064Z,3.00
2023-02-03T21:54:41.893Z,3.47
2023-02-03T21:56:45.710Z,2.77
2023-02-03T21:58:50.737Z,3.50
2023-02-03T22:00:55.832Z,3.13
2023-02-03T22:03:00.192Z,3.10
2023-02-03T22:05:04.315Z,2.70
2023-02-03T22:07:14.589Z,2.53
2023-02-03T22:09:18.680Z,3.80
2023-02-03T22:11:22.492Z,2.43
2023-02-03T22:13:25.562Z,3.50
2023-02-03T22:15:27.770Z,2.67
2023-02-03T22:17:29.978Z,3.80
2023-02-03T22:19:33.786Z,3.60
2023-02-03T22:21:39.287Z,2.73
2023-02-03T22:23:42.035Z,2.10
2023-02-03T22:25:44.248Z,2.47
2023-02-03T22:27:47.307Z,2.80
2023-02-03T22:29:49.613Z,2.70
2023-02-03T22:31:51.870Z,2.50
2023-02-03T22:33:54.209Z,2.40
2023-02-03T22:35:56.404Z,2.80
2023-02-03T22:37:58.928Z,2.30
2023-02-03T22:40:01.134Z,2.50
2023-02-03T22:42:03.700Z,2.80
2023-02-03T22:44:07.774Z,2.80
2023-02-03T22:46:21.838Z,2.33
2023-02-03T22:48:24.088Z,2.90
2023-02-03T22:50:35.374Z,3.30
2023-02-03T22:52:38.442Z,2.90
2023-02-03T22:54:41.644Z,2.90
2023-02-03T22:56:43.821Z,4.63
2023-02-03T22:58:46.254Z,3.50
2023-02-03T23:00:48.588Z,3.37
2023-02-03T23:02:51.241Z,2.30
2023-02-03T23:04:53.539Z,2.40
2023-02-03T23:06:55.763Z,2.70
2023-02-03T23:08:57.970Z,2.63
2023-02-03T23:11:00.225Z,2.83
2023-02-03T23:13:07.212Z,3.00
2023-02-03T23:15:14.304Z,2.67
2023-02-03T23:17:17.205Z,2.80
2023-02-03T23:19:21.424Z,3.03
2023-02-03T23:21:23.704Z,2.70
2023-02-03T23:23:26.064Z,3.13
2023-02-03T23:25:28.230Z,2.50
2023-02-03T23:27:30.650Z,2.93
2023-02-03T23:29:33.195Z,3.20
2023-02-03T23:31:35.728Z,2.70
2023-02-03T23:33:38.355Z,2.70
2023-02-03T23:35:46.420Z,2.93
2023-02-03T23:37:48.693Z,2.40
2023-02-03T23:39:51.002Z,2.63
2023-02-03T23:41:53.176Z,2.90
2023-02-03T23:43:55.354Z,3.10
2023-02-03T23:45:57.520Z,2.57
2023-02-03T23:47:59.858Z,2.20
2023-02-03T23:50:02.068Z,2.20
2023-02-03T23:52:04.555Z,2.67
2023-02-03T23:54:07.034Z,2.50
2023-02-03T23:56:09.250Z,2.00
2023-02-03T23:58:11.843Z,2.40
